M I D A S
Marine Information and Data Acquisition System
Tripno 1184 of the Zeeleeuw from 2006-11-28 08:03:03 to 2006-11-28 14:25:56
Back to CruiseResearch ActivitiesStationsMapUnderway DataData graphs

EquipmentUnitsComments
TimeDGPSUTC
LatitudeDGPSDM.mWGS84
LongitudeDGPSDM.mWGS84
SpeedMeteo Stationm/sRelative wind speed
DirectionMeteo StationdegRelative wind direction
TemperatureMeteo Stationdeg CelciusAir temperature
PressureMeteo StationPaAtmospheric pressure
HumidityMeteo Station%Relative humidity
Missing or incorrect values are displayed as -999
Metereological data collected by the RV Zeeleeuw from 2006-11-28 07:55:09 to 2006-11-28 08:31:48
Time Latitude Longitude Speed Direction Temperature Pressure Humidity
2006-11-28 07:56 51°13.611 2°56.051 2.6 355 9.6 101270 95
2006-11-28 07:57 51°13.634 2°55.968 3.4 4 9.6 101280 95
2006-11-28 07:58 51°13.668 2°55.875 2.6 12 9.6 101280 95
2006-11-28 07:59 51°13.705 2°55.776 3.9 17 9.7 101270 95
2006-11-28 08:00 51°13.72 2°55.709 3.1 12 9.7 101270 95
2006-11-28 08:01 51°13.737 2°55.73 5.7 39 9.7 101270 95
2006-11-28 08:02 51°13.722 2°55.712 3.3 33 9.7 101280 95
2006-11-28 08:03 51°13.755 2°55.693 1.7 58 9.7 101280 95
2006-11-28 08:04 51°13.836 2°55.638 1.3 34 9.8 101280 95
2006-11-28 08:05 51°13.942 2°55.564 1.2 36 9.8 101280 95
2006-11-28 08:06 51°14.031 2°55.504 2.5 31 9.9 101280 95
2006-11-28 08:07 51°14.12 2°55.44 1.7 37 9.9 101280 95
2006-11-28 08:08 51°14.24 2°55.334 1.5 54 9.9 101280 95
2006-11-28 08:09 51°14.347 2°55.156 3.4 55 9.9 101280 95
2006-11-28 08:10 51°14.445 2°54.909 4.7 304 10 101270 95
2006-11-28 08:11 51°14.479 2°54.591 9.2 34 10 101260 95
2006-11-28 08:12 51°14.412 2°54.267 10.8 36 10.1 101240 95
2006-11-28 08:13 51°14.3 2°53.977 10.5 37 10.1 101230 95
2006-11-28 08:14 51°14.187 2°53.677 12.1 34 10.2 101230 95
2006-11-28 08:15 51°14.072 2°53.37 13.6 305 10.2 101220 95
2006-11-28 08:16 51°13.962 2°53.074 10.8 35 10.3 101220 95
2006-11-28 08:17 51°13.851 2°52.776 12.8 31 10.3 101220 94
2006-11-28 08:18 51°13.737 2°52.468 11.5 33 10.4 101220 94
2006-11-28 08:19 51°13.624 2°52.16 11.3 234 10.4 101210 94
2006-11-28 08:20 51°13.515 2°51.861 13.7 33 10.5 101210 94
2006-11-28 08:21 51°13.404 2°51.556 11.6 38 10.6 101210 94
2006-11-28 08:22 51°13.294 2°51.25 12.2 35 10.7 101200 93
2006-11-28 08:23 51°13.184 2°50.945 11 35 10.7 101210 93
2006-11-28 08:24 51°13.074 2°50.638 12.6 38 10.8 101200 93
2006-11-28 08:25 51°12.964 2°50.33 13 39 10.9 101210 92
2006-11-28 08:26 51°12.854 2°50.022 11.7 36 10.9 101210 92
2006-11-28 08:27 51°12.744 2°49.714 13.7 32 11 101210 92
2006-11-28 08:28 51°12.635 2°49.407 13.9 35 11.1 101210 91
2006-11-28 08:29 51°12.525 2°49.093 14 35 11.1 101220 91
2006-11-28 08:30 51°12.418 2°48.795 15.3 34 11.1 101220 90
2006-11-28 08:31 51°12.307 2°48.483 11.5 34 11.2 101200 90